Time;durP1;ratioP1;P1;durP2;ratioP2;P2;SDS_P1;SDS_P2;PMS_P1;PMS_P2;Temp;Humidity;BMP_temperature;BMP_pressure;BME280_temperature;BME280_humidity;BME280_pressure;Samples;Min_cycle;Max_cycle;Signal;HPM_P1;HPM_P2
2023/07/31 00:00:19;;;;;;;8.20;3.30;;;;;;;15.26;100.00;100386.31;679774;29;861;-62
2023/07/31 00:00:39;;;;;;;8.35;3.08;;;;;;;15.33;100.00;100388.69;678389;29;1291;-61
2023/07/31 00:00:59;;;;;;;7.33;3.03;;;;;;;15.33;100.00;100386.06;678118;29;1069;-62
2023/07/31 00:01:20;;;;;;;7.33;3.03;;;;;;;15.33;100.00;100383.44;678867;29;4453;-63
2023/07/31 00:01:40;;;;;;;7.65;3.00;;;;;;;15.36;100.00;100382.50;679320;29;909;-62
2023/07/31 00:02:01;;;;;;;7.53;3.20;;;;;;;15.37;100.00;100385.97;678767;29;1045;-61
2023/07/31 00:02:21;;;;;;;8.75;3.22;;;;;;;15.42;100.00;100384.06;679560;29;1315;-62
2023/07/31 00:02:42;;;;;;;8.37;3.30;;;;;;;15.37;100.00;100389.50;679514;29;882;-62
2023/07/31 00:03:02;;;;;;;6.55;2.97;;;;;;;15.34;100.00;100389.59;678490;29;1921;-63
2023/07/31 00:03:22;;;;;;;7.57;3.13;;;;;;;15.41;100.00;100377.06;678373;29;850;-63
2023/07/31 00:03:43;;;;;;;8.13;3.75;;;;;;;15.46;100.00;100377.81;677821;29;775;-63
2023/07/31 00:04:03;;;;;;;6.93;3.40;;;;;;;15.41;100.00;100380.59;677431;29;1000;-62
2023/07/31 00:04:23;;;;;;;7.03;3.03;;;;;;;15.35;100.00;100382.53;677896;29;4270;-62
2023/07/31 00:04:44;;;;;;;6.78;2.95;;;;;;;15.32;100.00;100379.06;679195;29;1156;-61
2023/07/31 00:05:05;;;;;;;5.47;2.77;;;;;;;15.32;100.00;100386.13;678129;29;1738;-61
2023/07/31 00:05:25;;;;;;;5.00;2.70;;;;;;;15.36;100.00;100382.50;679216;29;1922;-63
2023/07/31 00:05:45;;;;;;;6.25;2.80;;;;;;;15.38;100.00;100372.78;679573;29;1005;-62
2023/07/31 00:06:06;;;;;;;7.87;2.80;;;;;;;15.40;100.00;100383.28;678503;29;1193;-63
2023/07/31 00:06:26;;;;;;;5.57;2.73;;;;;;;15.42;100.00;100381.44;679648;29;785;-62
2023/07/31 00:06:47;;;;;;;6.78;2.90;;;;;;;15.52;100.00;100382.91;678886;29;782;-63
2023/07/31 00:07:07;;;;;;;6.67;2.80;;;;;;;15.50;100.00;100377.66;676724;29;1832;-63
2023/07/31 00:07:30;;;;;;;6.55;2.95;;;;;;;15.44;100.00;100372.59;678134;29;4341;-62
2023/07/31 00:07:54;;;;;;;7.20;3.10;;;;;;;15.38;100.00;100375.41;677980;29;853;-63
2023/07/31 00:08:15;;;;;;;7.60;3.20;;;;;;;15.43;100.00;100372.63;677893;29;1443;-62
2023/07/31 00:08:35;;;;;;;8.07;2.93;;;;;;;15.42;100.00;100378.81;678529;29;889;-62
2023/07/31 00:08:56;;;;;;;6.60;2.97;;;;;;;15.40;100.00;100378.00;676903;29;1568;-62
2023/07/31 00:09:19;;;;;;;8.80;3.20;;;;;;;15.39;100.00;100381.53;678540;29;1218;-62
2023/07/31 00:09:39;;;;;;;7.78;3.08;;;;;;;15.40;100.00;100378.84;678979;29;988;-63
2023/07/31 00:09:59;;;;;;;6.07;2.90;;;;;;;15.45;100.00;100376.06;679991;29;1224;-63
2023/07/31 00:10:20;;;;;;;5.50;2.80;;;;;;;15.45;100.00;100376.06;680345;29;4513;-62
2023/07/31 00:10:41;;;;;;;7.93;3.22;;;;;;;15.44;100.00;100382.28;680530;29;1375;-62
2023/07/31 00:11:01;;;;;;;8.40;3.40;;;;;;;15.40;100.00;100378.84;679181;28;1589;-62
2023/07/31 00:11:21;;;;;;;7.37;3.40;;;;;;;15.43;100.00;100377.91;680769;29;928;-62
2023/07/31 00:11:42;;;;;;;7.00;3.10;;;;;;;15.44;100.00;100377.84;680683;29;925;-63
2023/07/31 00:12:05;;;;;;;7.93;3.30;;;;;;;15.43;100.00;100375.28;679525;28;2134;-62
2023/07/31 00:12:25;;;;;;;7.40;3.40;;;;;;;15.47;100.00;100376.91;680648;28;991;-63
2023/07/31 00:12:46;;;;;;;6.60;2.90;;;;;;;15.47;100.00;100369.84;679920;29;972;-63
2023/07/31 00:13:06;;;;;;;6.40;3.00;;;;;;;15.54;100.00;100370.53;678198;29;1463;-63
2023/07/31 00:13:26;;;;;;;6.47;3.10;;;;;;;15.48;100.00;100382.13;677617;29;4473;-62
2023/07/31 00:13:47;;;;;;;5.75;2.83;;;;;;;15.41;100.00;100366.53;677305;29;885;-65
2023/07/31 00:14:07;;;;;;;7.07;3.00;;;;;;;15.37;100.00;100376.31;676158;29;1129;-62
2023/07/31 00:14:27;;;;;;;6.73;2.93;;;;;;;15.40;100.00;100372.75;675637;29;1030;-63
2023/07/31 00:14:48;;;;;;;7.68;2.97;;;;;;;15.41;100.00;100382.34;678639;29;928;-61
2023/07/31 00:15:09;;;;;;;6.38;2.80;;;;;;;15.40;100.00;100378.00;678039;29;1704;-61
2023/07/31 00:15:30;;;;;;;9.15;3.10;;;;;;;15.41;100.00;100380.59;680608;29;739;-62
2023/07/31 00:15:50;;;;;;;8.00;3.07;;;;;;;15.47;100.00;100375.13;678546;29;1008;-62
2023/07/31 00:16:10;;;;;;;7.17;2.77;;;;;;;15.50;100.00;100374.19;677647;29;4325;-62
2023/07/31 00:16:31;;;;;;;8.37;3.10;;;;;;;15.50;100.00;100379.44;678644;29;861;-62
2023/07/31 00:16:51;;;;;;;8.30;3.10;;;;;;;15.49;100.00;100388.25;678433;29;1021;-62
2023/07/31 00:17:12;;;;;;;7.78;3.10;;;;;;;15.53;100.00;100375.88;677608;29;2221;-62
2023/07/31 00:17:32;;;;;;;6.20;2.80;;;;;;;15.54;100.00;100382.88;677203;29;1007;-63
2023/07/31 00:17:52;;;;;;;5.93;2.78;;;;;;;15.55;100.00;100381.94;678357;29;858;-63
2023/07/31 00:18:13;;;;;;;5.77;2.67;;;;;;;15.60;100.00;100378.28;677355;29;1722;-63
2023/07/31 00:18:33;;;;;;;6.10;2.70;;;;;;;15.58;100.00;100381.88;677562;29;862;-62
2023/07/31 00:18:54;;;;;;;7.43;3.27;;;;;;;15.58;100.00;100381.88;677671;29;1000;-65
2023/07/31 00:19:14;;;;;;;6.77;2.70;;;;;;;15.58;100.00;100381.88;676694;29;4421;-64
2023/07/31 00:19:34;;;;;;;7.32;2.90;;;;;;;15.53;100.00;100386.41;677238;29;905;-62
2023/07/31 00:19:55;;;;;;;6.77;3.00;;;;;;;15.47;100.00;100379.53;677647;29;4097;-63
2023/07/31 00:20:15;;;;;;;6.97;2.85;;;;;;;15.48;100.00;100378.66;677485;29;1681;-62
2023/07/31 00:20:35;;;;;;;6.57;2.87;;;;;;;15.48;100.00;100378.66;677783;29;762;-63
2023/07/31 00:20:56;;;;;;;5.93;2.80;;;;;;;15.48;100.00;100376.00;678079;29;1474;-63
2023/07/31 00:21:16;;;;;;;6.80;2.95;;;;;;;15.54;100.00;100382.88;678932;29;1211;-62
2023/07/31 00:21:37;;;;;;;6.77;2.53;;;;;;;15.50;100.00;100382.09;679092;29;877;-62
2023/07/31 00:21:57;;;;;;;6.45;2.95;;;;;;;15.48;100.00;100382.13;678276;29;1527;-62
2023/07/31 00:22:17;;;;;;;6.07;2.90;;;;;;;15.50;100.00;100384.72;677138;29;4405;-63
2023/07/31 00:22:38;;;;;;;7.90;2.80;;;;;;;15.48;100.00;100381.28;679014;29;1324;-62
2023/07/31 00:22:58;;;;;;;7.13;2.80;;;;;;;15.47;100.00;100375.13;676018;29;1478;-63
2023/07/31 00:23:18;;;;;;;6.67;2.70;;;;;;;15.43;100.00;100388.44;681173;29;973;-62
2023/07/31 00:23:39;;;;;;;8.40;3.08;;;;;;;15.45;100.00;100384.88;682272;29;953;-64
2023/07/31 00:23:59;;;;;;;6.83;3.07;;;;;;;15.43;100.00;100377.91;680951;28;1789;-62
2023/07/31 00:24:19;;;;;;;6.00;2.83;;;;;;;15.40;100.00;100380.63;679252;29;1004;-65
2023/07/31 00:24:40;;;;;;;6.35;3.03;;;;;;;15.44;100.00;100380.50;679474;29;1094;-62
2023/07/31 00:25:00;;;;;;;6.10;2.83;;;;;;;15.49;100.00;100382.97;675905;29;1619;-63
2023/07/31 00:25:21;;;;;;;6.40;2.70;;;;;;;15.56;100.00;100378.41;677642;29;4441;-64
2023/07/31 00:25:42;;;;;;;6.93;2.70;;;;;;;15.56;100.00;100381.03;677682;29;821;-62
2023/07/31 00:26:02;;;;;;;6.85;2.95;;;;;;;15.52;100.00;100377.66;677222;29;2282;-62
2023/07/31 00:26:22;;;;;;;6.60;3.20;;;;;;;15.54;100.00;100382.88;681555;29;945;-62
2023/07/31 00:26:43;;;;;;;6.83;3.00;;;;;;;15.59;100.00;100380.94;681300;29;1003;-63
2023/07/31 00:27:04;;;;;;;8.57;2.97;;;;;;;15.57;100.00;100375.72;676658;29;1761;-62
2023/07/31 00:27:25;;;;;;;7.63;2.70;;;;;;;15.62;100.00;100384.34;678047;29;957;-63
2023/07/31 00:27:46;;;;;;;6.40;2.75;;;;;;;15.60;100.00;100377.41;679194;29;1534;-63
2023/07/31 00:28:08;;;;;;;6.47;2.70;;;;;;;15.60;100.00;100386.19;675735;29;1355;-62
2023/07/31 00:28:29;;;;;;;6.57;2.75;;;;;;;15.57;100.00;100386.25;672156;29;4799;-62
2023/07/31 00:28:49;;;;;;;7.13;2.87;;;;;;;15.62;100.00;100383.50;672614;29;881;-61
2023/07/31 00:29:09;;;;;;;6.72;2.83;;;;;;;15.60;100.00;100385.31;672665;29;1688;-63
2023/07/31 00:29:31;;;;;;;6.43;2.95;;;;;;;15.53;100.00;100389.88;671047;29;993;-64
2023/07/31 00:29:51;;;;;;;6.80;2.78;;;;;;;15.63;100.00;100387.84;676569;29;1059;-65
2023/07/31 00:30:12;;;;;;;6.20;2.60;;;;;;;15.55;100.00;100377.53;676069;29;1803;-63
2023/07/31 00:30:32;;;;;;;6.18;2.80;;;;;;;15.51;100.00;100383.81;675568;29;810;-61
2023/07/31 00:30:55;;;;;;;7.50;2.90;;;;;;;15.50;100.00;100384.72;678587;29;1399;-62
2023/07/31 00:31:19;;;;;;;7.32;3.00;;;;;;;15.53;100.00;100381.13;676331;29;4504;-62
2023/07/31 00:31:40;;;;;;;7.87;2.90;;;;;;;15.49;100.00;100388.25;680071;29;865;-62
2023/07/31 00:32:00;;;;;;;7.82;3.15;;;;;;;15.53;100.00;100376.72;676882;29;2214;-64
2023/07/31 00:32:20;;;;;;;6.20;2.93;;;;;;;15.52;100.00;100368.84;676329;29;881;-64
2023/07/31 00:32:41;;;;;;;6.43;2.67;;;;;;;15.46;100.00;100383.09;678447;29;822;-62
2023/07/31 00:33:01;;;;;;;6.57;2.90;;;;;;;15.43;100.00;100377.91;678252;29;1177;-62
2023/07/31 00:33:21;;;;;;;7.57;3.20;;;;;;;15.43;100.00;100383.19;677614;29;878;-63
2023/07/31 00:33:42;;;;;;;7.07;2.72;;;;;;;15.49;100.00;100378.59;677003;29;1452;-63
2023/07/31 00:34:04;;;;;;;7.70;2.97;;;;;;;15.49;100.00;100375.06;678509;29;1635;-63
2023/07/31 00:34:26;;;;;;;7.85;3.70;;;;;;;15.53;100.00;100368.81;678088;29;4592;-64
2023/07/31 00:34:46;;;;;;;6.07;2.90;;;;;;;15.59;100.00;100379.19;676645;29;1063;-63
2023/07/31 00:35:07;;;;;;;6.53;2.72;;;;;;;15.56;100.00;100379.28;675757;29;1278;-63
2023/07/31 00:35:27;;;;;;;6.13;3.17;;;;;;;15.52;100.00;100377.66;677184;29;1266;-62
2023/07/31 00:35:48;;;;;;;6.75;2.90;;;;;;;15.48;100.00;100376.84;677629;29;941;-63
2023/07/31 00:36:08;;;;;;;7.63;2.90;;;;;;;15.54;100.00;100372.31;677819;29;2304;-64
2023/07/31 00:36:29;;;;;;;7.67;3.20;;;;;;;15.57;100.00;100382.75;679312;29;1248;-63
2023/07/31 00:36:49;;;;;;;7.85;3.10;;;;;;;15.55;100.00;100379.31;680567;28;1241;-62
2023/07/31 00:37:10;;;;;;;9.38;3.15;;;;;;;15.54;100.00;100375.81;678081;29;4380;-63
2023/07/31 00:37:31;;;;;;;8.00;3.10;;;;;;;15.57;100.00;100375.72;679155;29;822;-64
2023/07/31 00:37:51;;;;;;;7.33;2.93;;;;;;;15.52;100.00;100382.91;680273;29;810;-63
2023/07/31 00:38:11;;;;;;;7.95;2.97;;;;;;;15.55;100.00;100380.19;678836;29;2248;-65
2023/07/31 00:38:34;;;;;;;7.10;3.00;;;;;;;15.47;100.00;100384.81;677935;29;1099;-65
2023/07/31 00:38:54;;;;;;;7.07;3.03;;;;;;;15.54;100.00;100375.81;679678;29;937;-66
2023/07/31 00:39:14;;;;;;;6.55;3.05;;;;;;;15.59;100.00;100379.19;680839;28;1754;-62
2023/07/31 00:39:35;;;;;;;6.47;3.27;;;;;;;15.57;100.00;100386.25;678262;29;1737;-62
2023/07/31 00:39:56;;;;;;;5.82;3.28;;;;;;;15.54;100.00;100375.81;677285;29;1213;-64
2023/07/31 00:40:16;;;;;;;6.55;3.10;;;;;;;15.54;100.00;100375.81;675694;29;4333;-66
2023/07/31 00:40:37;;;;;;;8.03;3.07;;;;;;;15.53;100.00;100381.97;679729;29;1364;-64
2023/07/31 00:40:58;;;;;;;6.55;2.88;;;;;;;15.57;100.00;100382.75;678614;29;1623;-63
2023/07/31 00:41:20;;;;;;;6.95;2.70;;;;;;;15.54;100.00;100377.59;680601;29;920;-65
2023/07/31 00:41:40;;;;;;;8.20;3.00;;;;;;;15.52;100.00;100375.00;682452;29;980;-64
2023/07/31 00:42:01;;;;;;;7.63;3.27;;;;;;;15.49;100.00;100375.97;678647;29;1590;-63
2023/07/31 00:42:23;;;;;;;7.78;3.17;;;;;;;15.54;100.00;100377.59;680711;29;5609;-64
2023/07/31 00:42:44;;;;;;;8.13;2.75;;;;;;;15.56;100.00;100373.13;676215;29;1475;-64
2023/07/31 00:43:04;;;;;;;8.60;2.80;;;;;;;15.52;100.00;100382.91;677415;29;2237;-64
2023/07/31 00:43:24;;;;;;;8.83;3.03;;;;;;;15.52;100.00;100372.38;678613;29;4471;-64
2023/07/31 00:43:45;;;;;;;6.90;2.75;;;;;;;15.47;100.00;100379.53;679068;29;1524;-65
2023/07/31 00:44:05;;;;;;;7.47;3.20;;;;;;;15.48;100.00;100381.28;678656;29;913;-63
2023/07/31 00:44:26;;;;;;;7.15;3.38;;;;;;;15.39;100.00;100377.13;679671;29;1184;-64
2023/07/31 00:44:47;;;;;;;6.80;3.10;;;;;;;15.48;100.00;100363.69;678167;29;865;-64
2023/07/31 00:45:09;;;;;;;6.63;3.00;;;;;;;15.43;100.00;100377.91;676750;29;1521;-63
2023/07/31 00:45:31;;;;;;;7.65;3.58;;;;;;;15.44;100.00;100379.63;678468;29;925;-64
2023/07/31 00:45:51;;;;;;;7.43;3.45;;;;;;;15.42;100.00;100378.81;679013;29;1414;-63
2023/07/31 00:46:12;;;;;;;8.20;3.15;;;;;;;15.38;100.00;100374.53;678324;29;4419;-67
2023/07/31 00:46:32;;;;;;;8.43;3.30;;;;;;;15.39;100.00;100376.28;678286;29;1341;-63
2023/07/31 00:46:54;;;;;;;7.82;3.30;;;;;;;15.35;100.00;100377.28;679100;29;1159;-63
2023/07/31 00:47:14;;;;;;;6.40;3.05;;;;;;;15.28;100.00;100379.22;674146;29;1037;-63
2023/07/31 00:47:35;;;;;;;7.10;2.97;;;;;;;15.30;100.00;100372.16;676606;29;783;-63
2023/07/31 00:47:56;;;;;;;7.53;3.00;;;;;;;15.35;100.00;100364.09;677044;29;1508;-65
2023/07/31 00:48:16;;;;;;;7.43;3.17;;;;;;;15.39;100.00;100373.63;675544;29;1777;-65
2023/07/31 00:48:38;;;;;;;6.35;3.00;;;;;;;15.39;100.00;100373.63;673502;29;994;-62
2023/07/31 00:48:59;;;;;;;7.50;3.22;;;;;;;15.39;100.00;100373.63;672241;29;1604;-63
2023/07/31 00:49:21;;;;;;;8.85;3.22;;;;;;;15.45;100.00;100370.81;670527;29;4366;-64
2023/07/31 00:49:43;;;;;;;7.75;3.28;;;;;;;15.45;100.00;100365.53;671206;29;1003;-64
2023/07/31 00:50:05;;;;;;;9.53;3.90;;;;;;;15.46;100.00;100367.28;671253;29;1855;-63
2023/07/31 00:50:28;;;;;;;6.68;3.10;;;;;;;15.35;100.00;100370.22;675985;29;982;-65
2023/07/31 00:50:48;;;;;;;7.05;3.30;;;;;;;15.37;100.00;100372.81;677596;29;965;-64
2023/07/31 00:51:10;;;;;;;7.07;2.85;;;;;;;15.32;100.00;100373.81;673959;29;1790;-64
2023/07/31 00:51:30;;;;;;;8.23;3.35;;;;;;;15.38;100.00;100366.63;676155;29;838;-64
2023/07/31 00:51:51;;;;;;;8.07;3.37;;;;;;;15.48;100.00;100368.97;677075;29;1107;-65
2023/07/31 00:52:13;;;;;;;7.60;3.08;;;;;;;15.42;100.00;100365.63;675327;29;4689;-64
2023/07/31 00:52:33;;;;;;;8.18;3.03;;;;;;;15.44;100.00;100363.84;676799;29;929;-65
2023/07/31 00:52:54;;;;;;;8.03;2.93;;;;;;;15.44;100.00;100369.09;673417;29;1182;-64
2023/07/31 00:53:14;;;;;;;8.30;3.28;;;;;;;15.40;100.00;100372.75;672162;29;1835;-65
2023/07/31 00:53:35;;;;;;;8.73;3.40;;;;;;;15.39;100.00;100365.75;672747;29;1308;-65
2023/07/31 00:53:55;;;;;;;8.05;2.95;;;;;;;15.46;100.00;100367.28;674094;29;1256;-64
2023/07/31 00:54:16;;;;;;;7.47;3.20;;;;;;;15.49;100.00;100367.19;671843;29;1910;-65
2023/07/31 00:54:37;;;;;;;9.70;3.53;;;;;;;15.55;100.00;100366.13;670750;29;918;-65
2023/07/31 00:54:57;;;;;;;8.43;2.90;;;;;;;15.49;100.00;100362.78;674468;29;2183;-63
2023/07/31 00:55:18;;;;;;;6.45;2.85;;;;;;;15.49;100.00;100367.19;678026;29;4520;-64
2023/07/31 00:55:39;;;;;;;6.05;3.05;;;;;;;15.48;100.00;100370.75;679254;29;1234;-64
2023/07/31 00:56:00;;;;;;;7.05;3.00;;;;;;;15.44;100.00;100366.47;675469;29;1470;-64
2023/07/31 00:56:21;;;;;;;7.18;3.00;;;;;;;15.46;100.00;100364.63;674911;29;945;-64
2023/07/31 00:56:44;;;;;;;7.33;3.20;;;;;;;15.39;100.00;100363.09;677624;29;734;-64
2023/07/31 00:57:04;;;;;;;9.75;3.58;;;;;;;15.43;100.00;100367.38;676320;29;1918;-65
2023/07/31 00:57:25;;;;;;;7.68;3.00;;;;;;;15.53;100.00;100360.91;677753;29;925;-66
2023/07/31 00:57:45;;;;;;;7.88;2.90;;;;;;;15.47;100.00;100369.84;680565;29;886;-64
2023/07/31 00:58:06;;;;;;;7.53;2.90;;;;;;;15.46;100.00;100362.00;680121;28;1547;-64
2023/07/31 00:58:26;;;;;;;7.22;3.20;;;;;;;15.49;100.00;100370.69;680875;28;4253;-66
2023/07/31 00:58:47;;;;;;;6.83;3.10;;;;;;;15.48;100.00;100363.69;679445;29;1129;-64
2023/07/31 00:59:10;;;;;;;6.35;3.20;;;;;;;15.53;100.00;100363.53;677402;29;1415;-65
2023/07/31 00:59:31;;;;;;;7.63;3.00;;;;;;;15.57;100.00;100366.97;676053;29;873;-65
2023/07/31 00:59:51;;;;;;;7.78;2.97;;;;;;;15.57;100.00;100366.97;676641;29;925;-64
2023/07/31 01:00:12;;;;;;;7.87;3.10;;;;;;;15.48;100.00;100366.31;674031;29;1687;-63
2023/07/31 01:00:35;;;;;;;8.00;3.15;;;;;;;15.47;100.00;100369.00;675291;29;1051;-64
2023/07/31 01:00:55;;;;;;;7.20;2.90;;;;;;;15.49;100.00;100362.78;678208;29;1269;-64
2023/07/31 01:01:16;;;;;;;8.18;3.15;;;;;;;15.56;100.00;100360.84;678574;28;4411;-64
2023/07/31 01:01:37;;;;;;;8.83;3.30;;;;;;;15.55;100.00;100356.47;681355;29;846;-63
2023/07/31 01:01:57;;;;;;;7.75;3.08;;;;;;;15.51;100.00;100357.47;676622;29;1120;-64
2023/07/31 01:02:18;;;;;;;6.65;2.92;;;;;;;15.45;100.00;100360.28;676348;29;1303;-64
2023/07/31 01:02:39;;;;;;;6.53;2.90;;;;;;;15.45;100.00;100361.16;675653;29;1046;-64
2023/07/31 01:03:00;;;;;;;7.70;3.13;;;;;;;15.53;100.00;100360.06;674540;29;944;-63
2023/07/31 01:03:20;;;;;;;6.80;2.80;;;;;;;15.48;100.00;100360.22;674869;29;964;-63
2023/07/31 01:03:41;;;;;;;7.85;3.50;;;;;;;15.47;100.00;100359.31;674786;29;805;-65
2023/07/31 01:04:02;;;;;;;6.80;2.80;;;;;;;15.47;100.00;100354.06;676353;29;1470;-63
2023/07/31 01:04:22;;;;;;;6.27;2.90;;;;;;;15.45;100.00;100361.16;678508;29;4521;-63
2023/07/31 01:04:44;;;;;;;6.82;3.13;;;;;;;15.43;100.00;100356.84;678907;29;909;-65
2023/07/31 01:05:05;;;;;;;6.47;3.00;;;;;;;15.48;100.00;100354.94;677297;29;2020;-63
2023/07/31 01:05:49;;;;;;;5.90;2.97;;;;;;;15.46;100.00;100359.38;676603;29;1906;-63
2023/07/31 01:06:17;;;;;;;6.75;3.00;;;;;;;15.48;100.00;100353.16;676494;29;1026;-64
2023/07/31 01:07:04;;;;;;;6.22;2.78;;;;;;;15.54;100.00;100360.00;677197;29;1018;-64
2023/07/31 01:07:30;;;;;;;9.32;3.22;;;;;;;15.58;100.00;100351.09;678561;28;4568;-65
2023/07/31 01:08:06;;;;;;;6.88;2.80;;;;;;;15.57;100.00;100354.63;678705;29;862;-64
2023/07/31 01:08:44;;;;;;;8.00;3.33;;;;;;;15.64;100.00;100353.53;679752;29;1028;-64
2023/07/31 01:09:14;;;;;;;10.18;3.03;;;;;;;15.70;100.00;100349.00;677852;29;1277;-64
2023/07/31 01:09:38;;;;;;;7.78;3.00;;;;;;;15.59;100.00;100357.22;679895;29;910;-63
2023/07/31 01:10:23;;;;;;;9.20;3.15;;;;;;;15.45;100.00;100347.09;678321;29;1332;-64
2023/07/31 01:10:55;;;;;;;7.20;2.95;;;;;;;15.46;100.00;100351.47;681470;28;4946;-63
2023/07/31 01:11:21;;;;;;;7.57;3.00;;;;;;;15.44;100.00;100353.31;679740;28;1035;-63
2023/07/31 01:11:51;;;;;;;7.38;2.70;;;;;;;15.48;100.00;100347.03;678826;29;2238;-64
2023/07/31 01:12:18;;;;;;;7.10;2.97;;;;;;;15.41;100.00;100345.47;677657;29;944;-64
2023/07/31 01:12:40;;;;;;;7.55;2.85;;;;;;;15.48;100.00;100347.03;679031;29;1044;-63
2023/07/31 01:13:01;;;;;;;5.75;2.70;;;;;;;15.52;100.00;100348.66;676764;29;971;-65
2023/07/31 01:13:22;;;;;;;6.07;3.00;;;;;;;15.54;100.00;100352.09;675519;29;5533;-65
2023/07/31 01:13:45;;;;;;;8.18;2.85;;;;;;;15.54;100.00;100343.34;677629;29;850;-64
2023/07/31 01:14:06;;;;;;;7.07;2.92;;;;;;;15.55;100.00;100350.31;676006;29;988;-63
2023/07/31 01:14:26;;;;;;;7.95;2.80;;;;;;;15.49;100.00;100356.63;674228;29;960;-64
2023/07/31 01:15:06;;;;;;;7.33;3.00;;;;;;;15.49;100.00;100346.09;674990;29;984;-64
2023/07/31 01:15:26;;;;;;;7.07;2.90;;;;;;;15.44;100.00;100350.66;678748;29;1158;-63
2023/07/31 01:15:47;;;;;;;8.80;3.13;;;;;;;15.47;100.00;100342.66;680055;29;1263;-65
2023/07/31 01:16:07;;;;;;;7.57;2.77;;;;;;;15.48;100.00;100347.03;674432;29;3717;-63
2023/07/31 01:16:28;;;;;;;5.50;2.55;;;;;;;15.55;100.00;100345.94;678053;29;4403;-63
2023/07/31 01:16:48;;;;;;;5.90;2.87;;;;;;;15.53;100.00;100345.09;676082;29;1107;-64
2023/07/31 01:17:08;;;;;;;7.95;2.78;;;;;;;15.53;100.00;100339.84;675150;29;2023;-65
2023/07/31 01:17:29;;;;;;;7.00;2.70;;;;;;;15.57;100.00;100340.63;676320;29;1267;-63
2023/07/31 01:17:49;;;;;;;6.55;2.50;;;;;;;15.54;100.00;100349.47;675770;29;909;-60
2023/07/31 01:18:10;;;;;;;6.97;2.60;;;;;;;15.54;100.00;100348.63;678444;29;1090;-63
2023/07/31 01:18:30;;;;;;;7.75;2.78;;;;;;;15.53;100.00;100357.41;677934;29;1200;-63
2023/07/31 01:18:51;;;;;;;8.33;2.83;;;;;;;15.56;100.00;100349.41;680032;29;1228;-65
2023/07/31 01:19:18;;;;;;;6.97;2.72;;;;;;;15.55;100.00;100360.84;675530;29;4425;-63
2023/07/31 01:19:38;;;;;;;5.70;2.47;;;;;;;15.55;100.00;100350.31;675241;29;1443;-63
2023/07/31 01:20:03;;;;;;;7.55;2.90;;;;;;;15.50;100.00;100347.84;677065;29;2143;-63
2023/07/31 01:20:26;;;;;;;7.47;2.85;;;;;;;15.54;100.00;100349.47;679663;29;1359;-64
2023/07/31 01:20:57;;;;;;;8.18;2.72;;;;;;;15.56;100.00;100354.69;679507;29;782;-63
2023/07/31 01:21:36;;;;;;;6.93;2.80;;;;;;;15.55;100.00;100355.59;679039;29;1344;-64
2023/07/31 01:22:03;;;;;;;6.65;2.90;;;;;;;15.45;100.00;100352.38;678182;29;1087;-64
2023/07/31 01:22:54;;;;;;;6.85;2.83;;;;;;;15.43;100.00;100348.94;673425;29;4384;-64
2023/07/31 01:23:37;;;;;;;7.18;2.60;;;;;;;15.30;100.00;100351.94;675159;29;1908;-63
2023/07/31 01:24:23;;;;;;;6.82;2.60;;;;;;;15.28;100.00;100353.72;677641;29;961;-64
2023/07/31 01:24:59;;;;;;;5.80;2.83;;;;;;;15.30;100.00;100344.03;677177;29;934;-63
2023/07/31 01:25:54;;;;;;;6.05;2.90;;;;;;;15.31;100.00;100347.50;674621;29;4749;-64
2023/07/31 01:26:19;;;;;;;6.32;2.70;;;;;;;15.36;100.00;100350.88;674785;29;2798;-64
2023/07/31 01:26:42;;;;;;;6.88;2.63;;;;;;;15.39;100.00;100349.94;677785;29;2175;-64
2023/07/31 01:27:17;;;;;;;6.18;2.70;;;;;;;15.46;100.00;100348.84;677939;29;1259;-67
2023/07/31 01:27:50;;;;;;;6.25;2.55;;;;;;;15.45;100.00;100349.72;678135;29;928;-63
2023/07/31 01:28:18;;;;;;;6.88;2.90;;;;;;;15.41;100.00;100359.53;673539;29;4336;-63
2023/07/31 01:29:07;;;;;;;9.10;3.25;;;;;;;15.48;100.00;100344.41;672431;29;1214;-65
2023/07/31 01:29:49;;;;;;;6.25;2.65;;;;;;;15.40;100.00;100346.41;677460;29;1051;-64
2023/07/31 01:30:16;;;;;;;5.65;2.22;;;;;;;15.41;100.00;100351.63;679701;29;1828;-64
2023/07/31 01:30:43;;;;;;;7.25;3.00;;;;;;;15.45;100.00;100347.09;679379;29;2201;-64
2023/07/31 01:31:07;;;;;;;6.68;2.78;;;;;;;15.40;100.00;100351.66;678383;29;1842;-63
2023/07/31 01:31:29;;;;;;;7.05;3.10;;;;;;;15.39;100.00;100349.94;678087;29;4310;-62
2023/07/31 01:31:50;;;;;;;10.13;3.00;;;;;;;15.38;100.00;100353.47;678902;29;809;-65
2023/07/31 01:32:12;;;;;;;7.00;2.67;;;;;;;15.41;100.00;100348.97;678380;29;940;-64
2023/07/31 01:32:32;;;;;;;6.88;2.85;;;;;;;15.37;100.00;100347.34;679475;29;969;-62
2023/07/31 01:32:54;;;;;;;8.43;2.97;;;;;;;15.37;100.00;100349.09;681493;28;1040;-63
2023/07/31 01:33:16;;;;;;;8.50;3.10;;;;;;;15.38;100.00;100354.34;679784;28;1838;-64
2023/07/31 01:33:37;;;;;;;9.43;3.08;;;;;;;15.41;100.00;100348.09;682035;29;909;-64
2023/07/31 01:34:01;;;;;;;6.00;2.85;;;;;;;15.39;100.00;100347.31;679999;29;996;-63
2023/07/31 01:34:22;;;;;;;7.03;3.03;;;;;;;15.36;100.00;100350.03;678741;28;4464;-63
2023/07/31 01:34:43;;;;;;;7.45;2.83;;;;;;;15.31;100.00;100345.75;679335;29;1028;-64
2023/07/31 01:35:04;;;;;;;6.95;3.28;;;;;;;15.42;100.00;100345.41;680497;28;2104;-64
2023/07/31 01:35:25;;;;;;;7.23;3.33;;;;;;;15.42;100.00;100355.09;682250;29;1006;-64
2023/07/31 01:35:47;;;;;;;8.18;3.50;;;;;;;15.40;100.00;100347.25;679539;29;1064;-63
2023/07/31 01:36:08;;;;;;;9.77;3.58;;;;;;;15.44;100.00;100338.34;675911;29;2040;-61
2023/07/31 01:36:30;;;;;;;9.13;3.70;;;;;;;15.41;100.00;100353.38;676907;29;1340;-63
2023/07/31 01:36:50;;;;;;;8.82;3.65;;;;;;;15.41;100.00;100348.97;677450;29;1315;-63
2023/07/31 01:37:10;;;;;;;9.00;3.45;;;;;;;15.39;100.00;100350.78;675487;29;4793;-63
2023/07/31 01:37:31;;;;;;;7.37;3.00;;;;;;;15.40;100.00;100352.53;677775;29;936;-64
2023/07/31 01:37:53;;;;;;;7.75;2.83;;;;;;;15.40;100.00;100351.66;677440;29;963;-63
2023/07/31 01:38:14;;;;;;;7.72;2.75;;;;;;;15.46;100.00;100346.19;678214;29;1098;-64
2023/07/31 01:38:35;;;;;;;7.45;2.85;;;;;;;15.49;100.00;100346.97;678430;29;3037;-63
2023/07/31 01:39:00;;;;;;;6.83;2.80;;;;;;;15.52;100.00;100351.31;678971;29;1060;-63
2023/07/31 01:39:21;;;;;;;7.28;2.83;;;;;;;15.58;100.00;100343.19;677467;29;975;-63
2023/07/31 01:39:41;;;;;;;7.90;3.20;;;;;;;15.58;100.00;100347.63;679636;29;1434;-63
2023/07/31 01:40:05;;;;;;;7.50;2.70;;;;;;;15.57;100.00;100346.72;675372;29;1968;-63
2023/07/31 01:40:27;;;;;;;6.75;2.63;;;;;;;15.50;100.00;100346.06;675637;29;4501;-63
2023/07/31 01:40:52;;;;;;;6.85;2.60;;;;;;;15.54;100.00;100349.47;675452;29;885;-63
2023/07/31 01:41:13;;;;;;;7.07;3.10;;;;;;;15.60;100.00;100344.03;673367;29;2119;-63
2023/07/31 01:41:34;;;;;;;7.45;3.05;;;;;;;15.55;100.00;100351.19;673815;29;1391;-63
2023/07/31 01:41:54;;;;;;;6.70;2.70;;;;;;;15.52;100.00;100348.66;676899;29;1032;-63
2023/07/31 01:42:14;;;;;;;6.10;2.57;;;;;;;15.53;100.00;100347.72;677066;29;1916;-63
2023/07/31 01:42:37;;;;;;;6.55;2.78;;;;;;;15.44;100.00;100348.03;680916;29;916;-66
2023/07/31 01:42:57;;;;;;;7.70;2.77;;;;;;;15.42;100.00;100352.47;680978;29;1228;-66
2023/07/31 01:43:18;;;;;;;8.10;3.00;;;;;;;15.35;100.00;100345.66;678522;29;4317;-63
2023/07/31 01:43:38;;;;;;;7.70;2.63;;;;;;;15.40;100.00;100347.25;677632;29;922;-64
2023/07/31 01:43:59;;;;;;;7.93;2.47;;;;;;;15.43;100.00;100348.94;677735;29;1820;-64
2023/07/31 01:44:20;;;;;;;7.23;2.50;;;;;;;15.44;100.00;100353.31;677232;29;956;-64
2023/07/31 01:44:40;;;;;;;7.00;2.53;;;;;;;15.39;100.00;100356.06;673827;29;1337;-64
2023/07/31 01:45:01;;;;;;;6.47;2.63;;;;;;;15.45;100.00;100352.38;672187;29;1992;-63
2023/07/31 01:45:22;;;;;;;6.55;2.47;;;;;;;15.46;100.00;100352.31;674284;29;1965;-65
2023/07/31 01:45:42;;;;;;;7.83;2.90;;;;;;;15.47;100.00;100354.06;673290;29;1545;-64
2023/07/31 01:46:02;;;;;;;8.50;2.85;;;;;;;15.47;100.00;100354.06;671226;29;2335;-65
2023/07/31 01:46:23;;;;;;;7.43;2.70;;;;;;;15.48;100.00;100349.66;673453;29;4610;-65